Red Lodge, MT

8:14 AM MDT on August 21, 2014 (GMT -0600)
4.5 miles west of Red Lodge,Mt | Change Station
CLOSE
Current Station
Personal Weather Station
Location: Red Lodge, MT
Elevation: 5453 ft
Nearby Weather Stations

Elev 5453 ft 45.22 °N, 109.30 °W | Updated 9 seconds ago

Overcast
Overcast
53.3 °F
Feels Like 53.3 °F
N
0.0
Wind Variable Wind from NE
Gusts 1.0 mph

Today
High -- | Low -- °F
--% Chance of Precip.
Yesterday
High -- | Low -- °F
Precip. -- in
6:25 AM 8:13 PM
Waning Crescent, 14% visible
Pressure 30.07 in
Visibility 10.0 miles
Clouds Overcast 8500 ft
Dew Point 50 °F
Humidity 88%
Rainfall 0.00 in
Snow Depth 1 in , 0 in
UV 0 out of 12
Pollen 4.30 out of 12
Air Quality Not available.
Flu Activity Not available.
METAR KCOD 211355Z AUTO 06004KT 10SM OVC085 14/09 A3007 RMK AO1

More Conditions Fewer Conditions

Pressure 30.07 in
Visibility 10.0 miles
Clouds Overcast 8500 ft
Dew Point 50 °F
Humidity 88%
Rainfall 0.00 in
Snow Depth 1 in , 0 in
UV 0 out of 12
Pollen 4.30 out of 12
Air Quality Not available.
Flu Activity Not available.
METAR KCOD 211355Z AUTO 06004KT 10SM OVC085 14/09 A3007 RMK AO1

More Conditions Fewer Conditions

10-Day Weather Forecast

Almanac

Astronomy

Aug. 21, 2014 Rise Set
Actual Time 6:25 AM MDT 8:13 PM MDT
Civil Twilight 5:54 AM MDT 8:45 PM MDT
Nautical Twilight 5:15 AM MDT 9:23 PM MDT
Astronomical Twilight 4:34 AM MDT 10:04 PM MDT
Moon 2:54 AM MDT 5:48 PM MDT
Length of Visible Light 14h 50m
Length of Day
13h 48m
Tomorrow will be 2m 55s shorter.
Waning Crescent, 14% of the Moon is Illuminated
Today
Waning Crescent
Aug 25
New
Sep 2
First Quarter
Sep 8
Full
Sep 15
Last Quarter

Today's Extremes

State Highs State Lows

Community

WunderPhotos

Upload Photos

1,745,921 photos uploaded!

WunderBlogs® & News

Nearby

Snow Depth

Station Depth Elevation
Cole Creek 1 in 7850 ft
Burnt Mountain 0 in 5880 ft
White Mill 2 in 8700 ft
Fisher Creek 0 in 9100 ft
Northeast Entrance 0 in 7350 ft

Earthquake Activity

City Distance Mag. Time & Date
No recent earthquake activity has been reported nearby.
Minimum magnitude displayed is 2.5.

Coastal Water Temperatures

Place Temperature
No Stations Reporting

Nearby Weather Stations